Time;durP1;ratioP1;P1;durP2;ratioP2;P2;SDS_P1;SDS_P2;PMS_P1;PMS_P2;Temp;Humidity;BMP_temperature;BMP_pressure;BME280_temperature;BME280_humidity;BME280_pressure;Samples;Min_cycle;Max_cycle;Signal;HPM_P1;HPM_P2
2021/06/26 00:01:43;;;;;;;;;6.00;5.00;;;;;22.80;48.29;101267.94;5096951;27;45337;-48
2021/06/26 00:04:10;;;;;;;;;3.75;3.00;;;;;22.79;48.42;101266.22;5097019;27;45567;-54
2021/06/26 00:06:35;;;;;;;;;5.50;4.25;;;;;22.80;48.60;101272.38;5096466;27;46158;-58
2021/06/26 00:09:01;;;;;;;;;4.75;4.75;;;;;22.80;48.66;101277.66;5096889;27;45240;-58
2021/06/26 00:11:26;;;;;;;;;4.00;4.00;;;;;22.79;48.42;101276.81;5129949;27;45255;-57
2021/06/26 00:13:52;;;;;;;;;4.00;4.00;;;;;22.79;48.12;101276.81;5095434;27;45586;-61
2021/06/26 00:16:17;;;;;;;;;5.25;5.25;;;;;22.79;48.42;101276.81;5096334;27;45278;-48
2021/06/26 00:18:43;;;;;;;;;6.25;4.00;;;;;22.77;48.68;101278.69;5096409;27;45354;-63
2021/06/26 00:21:08;;;;;;;;;4.25;4.00;;;;;22.79;48.44;101275.97;5096550;27;45213;-62
2021/06/26 00:23:34;;;;;;;;;6.50;5.00;;;;;22.73;48.30;101260.44;5096832;27;45250;-61
2021/06/26 00:25:59;;;;;;;;;4.50;4.00;;;;;22.79;48.47;101270.69;5096213;27;46467;-57
2021/06/26 00:28:24;;;;;;;;;7.00;5.50;;;;;22.77;48.52;101273.38;5094840;27;45327;-65
2021/06/26 00:30:50;;;;;;;;;5.75;5.75;;;;;22.79;48.51;101279.44;5096454;27;45823;-62
2021/06/26 00:33:15;;;;;;;;;5.50;5.50;;;;;22.79;48.43;101271.50;5095310;27;45362;-60
2021/06/26 00:35:41;;;;;;;;;5.50;4.00;;;;;22.79;48.29;101284.72;5096291;27;46349;-67
2021/06/26 00:38:06;;;;;;;;;5.75;4.25;;;;;22.79;48.60;101287.38;5095926;27;45259;-48
2021/06/26 00:40:31;;;;;;;;;5.00;5.00;;;;;22.77;48.52;101281.31;5096642;27;45404;-68
2021/06/26 00:42:59;;;;;;;;;5.25;4.75;;;;;22.78;48.46;101279.53;5099872;27;45384;-66
2021/06/26 00:45:24;;;;;;;;;4.75;4.75;;;;;22.79;48.47;101273.31;5099422;27;47608;-67
2021/06/26 00:47:50;;;;;;;;;4.25;3.00;;;;;22.78;48.46;101269.81;5099389;27;45367;-68
2021/06/26 00:50:21;;;;;;;;;5.00;5.00;;;;;22.79;48.40;101270.69;5099697;27;45297;-57
2021/06/26 00:52:47;;;;;;;;;5.00;5.00;;;;;22.77;48.50;101262.81;5099739;27;45365;-57
2021/06/26 00:55:13;;;;;;;;;5.50;5.00;;;;;22.78;48.45;101253.97;5099363;27;46358;-68
2021/06/26 00:57:42;;;;;;;;;3.00;3.00;;;;;22.76;48.80;101240.00;5099293;27;45830;-68
2021/06/26 01:00:08;;;;;;;;;4.25;4.25;;;;;22.79;48.59;101249.53;5099521;27;45303;-62
2021/06/26 01:02:33;;;;;;;;;3.00;3.00;;;;;22.78;48.46;101251.31;5099902;27;45323;-69
2021/06/26 01:04:59;;;;;;;;;4.00;4.00;;;;;22.77;48.51;101246.97;5099237;27;46069;-68
2021/06/26 01:07:24;;;;;;;;;3.25;3.25;;;;;22.79;48.49;101249.53;5099356;27;45532;-67
2021/06/26 01:09:49;;;;;;;;;5.00;5.00;;;;;22.77;48.32;101235.56;5099284;27;45383;-67
2021/06/26 01:12:15;;;;;;;;;3.50;3.50;;;;;22.78;48.66;101242.56;5099590;27;45595;-63
2021/06/26 01:14:40;;;;;;;;;2.50;2.50;;;;;22.78;48.51;101239.91;5099079;27;45364;-65
2021/06/26 01:17:09;;;;;;;;;4.25;4.25;;;;;22.79;48.54;101245.09;5099339;27;45357;-68
2021/06/26 01:19:36;;;;;;;;;4.00;3.50;;;;;22.78;48.72;101238.09;5099015;27;45294;-65
2021/06/26 01:22:07;;;;;;;;;2.50;2.50;;;;;22.78;48.81;101237.25;5099327;27;45515;-69
2021/06/26 01:24:34;;;;;;;;;7.00;5.25;;;;;22.78;48.58;101237.25;5099087;27;46595;-64
2021/06/26 01:27:00;;;;;;;;;3.00;3.00;;;;;22.78;48.58;101238.09;5099060;27;45365;-68
2021/06/26 01:29:26;;;;;;;;;3.50;3.50;;;;;22.76;48.35;101224.16;5099103;27;45227;-68
2021/06/26 01:31:52;;;;;;;;;5.00;5.00;;;;;22.77;48.78;101241.69;5099195;27;45250;-65
2021/06/26 01:34:18;;;;;;;;;4.75;4.00;;;;;22.76;48.94;101228.56;5098720;27;45964;-51
2021/06/26 01:36:43;;;;;;;;;5.75;5.25;;;;;22.76;48.74;101228.56;5098887;27;45774;-62
2021/06/26 01:39:09;;;;;;;;;4.50;4.50;;;;;22.76;48.74;101229.44;5098872;27;45226;-49
2021/06/26 01:41:34;;;;;;;;;3.75;3.75;;;;;22.76;48.73;101218.00;5098116;27;45563;-55
2021/06/26 01:44:00;;;;;;;;;5.25;4.00;;;;;22.76;48.67;101224.16;5097254;27;47291;-65
2021/06/26 01:46:26;;;;;;;;;6.00;4.50;;;;;22.78;48.86;101227.53;5098511;27;45468;-63
2021/06/26 01:48:52;;;;;;;;;4.75;3.50;;;;;22.76;48.82;101220.66;5098787;27;45268;-63
2021/06/26 01:51:17;;;;;;;;;4.50;4.50;;;;;22.77;48.58;101225.00;5098811;27;45489;-59
2021/06/26 01:53:43;;;;;;;;;4.00;4.00;;;;;22.78;48.93;101229.34;5130398;27;46211;-59
2021/06/26 01:56:11;;;;;;;;;5.50;5.00;;;;;22.78;48.72;101224.06;5098899;27;45300;-65
2021/06/26 01:58:36;;;;;;;;;4.00;4.00;;;;;22.77;48.79;101225.00;5098825;27;45315;-68
2021/06/26 02:01:02;;;;;;;;;7.00;5.75;;;;;22.78;48.94;101226.69;5098755;27;45211;-67
2021/06/26 02:03:27;;;;;;;;;4.50;4.25;;;;;22.77;49.14;101222.34;5098161;27;45356;-62
2021/06/26 02:05:52;;;;;;;;;7.25;4.00;;;;;22.75;49.20;101227.72;5098326;27;45397;-66
2021/06/26 02:08:18;;;;;;;;;6.25;4.00;;;;;22.77;48.85;101228.47;5098337;27;45266;-67
2021/06/26 02:10:43;;;;;;;;;6.00;4.25;;;;;22.74;49.18;101215.47;5098565;27;45580;-65
2021/06/26 02:13:09;;;;;;;;;3.75;3.75;;;;;22.76;49.07;101224.16;5098299;27;46265;-67
2021/06/26 02:15:34;;;;;;;;;4.00;4.00;;;;;22.76;49.30;101218.00;5098236;27;45251;-58
2021/06/26 02:17:59;;;;;;;;;4.00;4.00;;;;;22.77;48.73;101223.19;5098192;27;45500;-66
2021/06/26 02:20:25;;;;;;;;;5.00;3.50;;;;;22.77;48.97;101225.81;5098324;27;45385;-64
2021/06/26 02:22:50;;;;;;;;;4.00;4.00;;;;;22.76;49.17;101220.66;5098041;27;45451;-66
2021/06/26 02:25:17;;;;;;;;;4.75;4.25;;;;;22.77;49.20;101223.19;5097994;27;45470;-68
2021/06/26 02:27:43;;;;;;;;;5.00;5.00;;;;;22.76;49.13;101224.16;5098067;27;45300;-66
2021/06/26 02:30:10;;;;;;;;;4.00;4.00;;;;;22.76;49.00;101224.16;5098564;27;45544;-66
2021/06/26 02:32:36;;;;;;;;;4.75;4.25;;;;;22.76;49.20;101224.16;5097755;27;46363;-66
2021/06/26 02:35:02;;;;;;;;;4.50;3.00;;;;;22.76;49.19;101218.00;5098028;27;45709;-66
2021/06/26 02:37:28;;;;;;;;;4.25;4.25;;;;;22.77;49.26;101225.00;5131231;27;45405;-58
2021/06/26 02:39:53;;;;;;;;;3.50;3.50;;;;;22.75;48.83;101222.44;5131086;27;45361;-54
2021/06/26 02:42:18;;;;;;;;;3.50;3.50;;;;;22.77;49.08;101223.19;5097802;27;45259;-66
2021/06/26 02:44:44;;;;;;;;;4.75;4.25;;;;;22.75;49.46;101217.16;5095980;27;45443;-65
2021/06/26 02:47:09;;;;;;;;;3.50;3.50;;;;;22.73;49.01;101213.75;5098140;27;45351;-63
2021/06/26 02:49:35;;;;;;;;;3.50;3.50;;;;;22.76;49.26;101221.50;5098010;27;45371;-66
2021/06/26 02:52:00;;;;;;;;;4.25;4.00;;;;;22.73;49.28;101208.47;5097614;27;46466;-55
2021/06/26 02:54:25;;;;;;;;;5.25;3.50;;;;;22.76;49.24;101215.34;5097629;27;45382;-66
2021/06/26 02:56:51;;;;;;;;;10.25;5.75;;;;;22.75;49.32;101219.81;5097702;27;45697;-65
2021/06/26 02:59:16;;;;;;;;;7.25;4.75;;;;;22.77;49.00;101219.72;5097850;27;45334;-61
2021/06/26 03:01:42;;;;;;;;;5.00;4.50;;;;;22.75;49.29;101214.53;5097653;27;46102;-60
2021/06/26 03:04:07;;;;;;;;;6.00;5.00;;;;;22.75;49.18;101209.25;5130258;27;45460;-67
2021/06/26 03:06:32;;;;;;;;;4.00;4.00;;;;;22.76;49.34;101212.72;5096260;27;45343;-65
2021/06/26 03:08:58;;;;;;;;;6.00;6.00;;;;;22.75;49.60;101217.16;5097655;27;45511;-64
2021/06/26 03:11:23;;;;;;;;;4.25;4.25;;;;;22.75;49.24;101208.38;5097325;27;45263;-59
2021/06/26 03:13:49;;;;;;;;;3.25;3.00;;;;;22.73;49.63;101205.84;5097423;27;45351;-65
2021/06/26 03:16:14;;;;;;;;;4.25;4.25;;;;;22.72;49.47;101201.47;5097380;27;45313;-51
2021/06/26 03:18:43;;;;;;;;;4.50;4.00;;;;;22.75;49.41;101208.38;5097812;27;45464;-51
2021/06/26 03:21:09;;;;;;;;;3.75;3.75;;;;;22.75;49.42;101217.16;5097163;27;46992;-47
2021/06/26 03:23:35;;;;;;;;;4.25;4.25;;;;;22.75;49.25;101216.28;5097129;27;45827;-48
2021/06/26 03:26:00;;;;;;;;;4.25;4.25;;;;;22.65;49.47;101198.34;5097268;27;45318;-47
2021/06/26 03:28:25;;;;;;;;;6.00;4.50;;;;;22.74;49.59;101218.09;5097301;27;45407;-54
2021/06/26 03:30:51;;;;;;;;;4.00;4.00;;;;;22.73;49.52;101213.75;5096805;27;45489;-55
2021/06/26 03:33:16;;;;;;;;;5.25;5.25;;;;;22.72;49.61;101217.34;5096957;27;45343;-53
2021/06/26 03:35:42;;;;;;;;;5.00;5.00;;;;;22.73;49.69;101219.03;5097440;27;45360;-58
2021/06/26 03:38:07;;;;;;;;;4.25;4.25;;;;;22.71;49.79;101205.06;5097101;27;45642;-56
2021/06/26 03:40:33;;;;;;;;;4.75;4.75;;;;;22.74;49.64;101215.47;5096832;27;46136;-52
2021/06/26 03:42:58;;;;;;;;;4.75;4.75;;;;;22.71;49.42;101202.41;5095656;27;45283;-58
2021/06/26 03:45:23;;;;;;;;;3.75;3.75;;;;;22.73;49.83;101204.97;5096976;27;45425;-59
2021/06/26 03:47:49;;;;;;;;;5.00;3.75;;;;;22.71;49.56;101199.78;5097053;27;45610;-48
2021/06/26 03:50:14;;;;;;;;;6.75;5.00;;;;;22.71;49.76;101207.72;5097146;27;46047;-50
2021/06/26 03:52:40;;;;;;;;;4.00;4.00;;;;;22.74;49.82;101204.03;5096751;27;45354;-54
2021/06/26 03:55:06;;;;;;;;;5.00;3.50;;;;;22.70;49.60;101208.66;5097005;27;45425;-56
2021/06/26 03:57:31;;;;;;;;;4.50;4.50;;;;;22.74;49.39;101214.59;5097122;27;45604;-50
2021/06/26 03:59:56;;;;;;;;;4.25;3.75;;;;;22.72;49.55;101211.19;5096650;27;46031;-51
2021/06/26 04:02:22;;;;;;;;;5.50;5.00;;;;;22.72;49.68;101214.69;5096796;27;45245;-53
2021/06/26 04:04:47;;;;;;;;;4.25;4.25;;;;;22.73;49.74;101215.53;5095364;27;45252;-48
2021/06/26 04:07:12;;;;;;;;;6.75;5.25;;;;;22.73;49.69;101212.88;5096908;27;45353;-52
2021/06/26 04:09:38;;;;;;;;;5.00;5.00;;;;;22.74;49.92;101219.88;5096462;27;46077;-50
2021/06/26 04:12:04;;;;;;;;;5.50;5.50;;;;;22.74;49.80;101212.81;5096584;27;45249;-50
2021/06/26 04:14:29;;;;;;;;;5.50;5.00;;;;;22.73;49.86;101223.47;5096450;27;45310;-48
2021/06/26 04:16:55;;;;;;;;;5.75;4.00;;;;;22.71;49.87;101215.63;5098846;27;45487;-50
2021/06/26 04:19:20;;;;;;;;;5.00;5.00;;;;;22.73;50.05;101221.69;5100015;27;46830;-53
2021/06/26 04:21:46;;;;;;;;;4.50;4.50;;;;;22.73;49.69;101221.69;5100297;27;49524;-54
2021/06/26 04:24:11;;;;;;;;;5.25;5.00;;;;;22.74;49.75;101227.81;5100427;27;45495;-48
2021/06/26 04:26:36;;;;;;;;;4.00;4.00;;;;;22.74;49.76;101222.53;5100258;27;45445;-47
2021/06/26 04:29:02;;;;;;;;;6.00;4.00;;;;;22.73;49.80;101228.75;5098400;27;48446;-52
2021/06/26 04:31:27;;;;;;;;;5.75;5.25;;;;;22.72;49.93;101219.97;5099794;27;45335;-47
2021/06/26 04:33:53;;;;;;;;;4.25;3.75;;;;;22.72;49.79;101221.75;5099907;27;45459;-48
2021/06/26 04:36:18;;;;;;;;;7.75;5.50;;;;;22.70;50.21;101227.13;5100062;27;45362;-56
2021/06/26 04:38:44;;;;;;;;;5.75;5.75;;;;;22.72;50.08;101222.63;5099773;27;46245;-50
2021/06/26 04:41:11;;;;;;;;;7.75;6.50;;;;;22.72;49.96;101225.25;5099596;27;45353;-47
2021/06/26 04:43:37;;;;;;;;;6.00;5.00;;;;;22.71;50.27;101213.00;5098596;27;45398;-51
2021/06/26 04:46:03;;;;;;;;;5.00;5.00;;;;;22.71;50.07;101215.63;5099967;27;45462;-55
2021/06/26 04:48:29;;;;;;;;;6.25;6.00;;;;;22.72;50.23;101221.75;5099610;27;46582;-50
2021/06/26 04:50:56;;;;;;;;;5.00;4.75;;;;;22.72;50.03;101225.25;5099621;27;45751;-57
2021/06/26 04:53:21;;;;;;;;;5.00;4.75;;;;;22.71;50.17;101228.84;5099672;27;45454;-51
2021/06/26 04:55:53;;;;;;;;;6.00;5.00;;;;;22.72;50.13;101227.03;5100071;27;45333;-52
2021/06/26 04:58:22;;;;;;;;;4.75;4.75;;;;;22.70;50.30;101230.66;5099349;27;45247;-55
2021/06/26 05:00:51;;;;;;;;;6.50;4.50;;;;;22.71;50.00;101228.84;5099720;27;45342;-60
2021/06/26 05:03:18;;;;;;;;;5.25;5.25;;;;;22.72;50.49;101225.25;5099846;27;45307;-54
2021/06/26 05:05:43;;;;;;;;;3.75;3.25;;;;;22.68;50.22;101213.16;5100049;27;45538;-65
2021/06/26 05:08:10;;;;;;;;;4.50;4.50;;;;;22.69;49.95;101223.66;5099187;27;46102;-53
2021/06/26 05:10:35;;;;;;;;;4.00;3.75;;;;;22.71;50.07;101226.19;5099387;27;45402;-61
2021/06/26 05:13:01;;;;;;;;;4.50;4.50;;;;;22.71;49.92;101220.91;5099259;27;46222;-58
2021/06/26 05:15:27;;;;;;;;;4.50;3.25;;;;;22.72;50.12;101217.34;5099496;27;45428;-65
2021/06/26 05:17:53;;;;;;;;;4.75;4.75;;;;;22.70;50.10;101219.22;5099081;27;46163;-55
2021/06/26 05:20:18;;;;;;;;;7.00;5.00;;;;;22.72;50.07;101221.75;5098327;27;45453;-60
2021/06/26 05:22:43;;;;;;;;;4.50;4.50;;;;;22.70;50.36;101224.50;5099418;27;45235;-60
2021/06/26 05:25:09;;;;;;;;;5.00;5.00;;;;;22.71;50.21;101226.19;5099387;27;45291;-55
2021/06/26 05:27:34;;;;;;;;;4.75;4.75;;;;;22.70;50.35;101228.00;5098650;27;46051;-52
2021/06/26 05:30:00;;;;;;;;;4.25;4.25;;;;;22.71;50.09;101226.19;5099042;27;45377;-49
2021/06/26 05:32:25;;;;;;;;;5.50;4.00;;;;;22.69;50.03;101233.38;5099182;27;45343;-52
2021/06/26 05:34:51;;;;;;;;;4.00;4.00;;;;;22.72;50.22;101232.31;5099117;27;45288;-58
2021/06/26 05:37:16;;;;;;;;;4.00;4.00;;;;;22.69;49.91;101238.66;5097873;27;48298;-63
2021/06/26 05:39:41;;;;;;;;;6.00;5.50;;;;;22.72;50.12;101237.59;5098925;27;45263;-51
2021/06/26 05:42:07;;;;;;;;;5.75;5.00;;;;;22.72;50.26;101233.19;5098995;27;45405;-60
2021/06/26 05:44:32;;;;;;;;;4.25;4.25;;;;;22.70;50.15;101235.94;5132414;27;45585;-67
2021/06/26 05:46:58;;;;;;;;;4.00;4.00;;;;;22.71;49.96;101242.06;5098683;27;45533;-58
2021/06/26 05:49:23;;;;;;;;;4.25;4.25;;;;;22.72;49.84;101248.19;5098747;27;45346;-61
2021/06/26 05:51:49;;;;;;;;;5.00;4.00;;;;;22.71;50.21;101247.34;5099126;27;45376;-67
2021/06/26 05:54:14;;;;;;;;;4.00;4.00;;;;;22.71;49.97;101247.34;5098922;27;45520;-62
2021/06/26 05:56:39;;;;;;;;;5.00;5.00;;;;;22.71;49.95;101239.41;5098573;27;45563;-66
2021/06/26 05:59:05;;;;;;;;;3.75;3.75;;;;;22.72;49.95;101249.03;5098477;27;45390;-63
2021/06/26 06:01:31;;;;;;;;;4.75;4.75;;;;;22.71;50.23;101242.06;5131879;27;45396;-54
2021/06/26 06:03:56;;;;;;;;;4.00;4.00;;;;;22.72;50.27;101245.53;5098779;27;45534;-65
2021/06/26 06:06:21;;;;;;;;;4.00;4.00;;;;;22.70;50.00;101246.50;5098538;27;46481;-55
2021/06/26 06:08:47;;;;;;;;;5.75;4.00;;;;;22.72;50.23;101253.47;5098446;27;45398;-55
2021/06/26 06:11:12;;;;;;;;;5.00;3.50;;;;;22.69;50.17;101241.28;5098455;27;45365;-49
2021/06/26 06:13:37;;;;;;;;;4.00;4.00;;;;;22.70;50.17;101257.06;5098543;27;45477;-63
2021/06/26 06:16:03;;;;;;;;;5.25;3.50;;;;;22.70;50.17;101243.84;5098031;27;46040;-62
2021/06/26 06:18:28;;;;;;;;;4.25;4.25;;;;;22.71;49.97;101255.25;5097737;27;45480;-62
2021/06/26 06:20:54;;;;;;;;;3.00;3.00;;;;;22.70;49.96;101249.16;5098156;27;45292;-67
2021/06/26 06:23:19;;;;;;;;;3.00;3.00;;;;;22.70;50.13;101256.19;5098676;27;45497;-51
2021/06/26 06:25:45;;;;;;;;;3.00;3.00;;;;;22.69;50.24;101249.22;5097934;27;46353;-64
2021/06/26 06:28:10;;;;;;;;;3.25;3.25;;;;;22.69;50.27;101249.22;5097809;27;45177;-64
2021/06/26 06:30:35;;;;;;;;;2.50;2.50;;;;;22.68;50.11;101252.78;5098132;27;45379;-64
2021/06/26 06:33:06;;;;;;;;;4.50;3.75;;;;;22.66;50.09;101250.25;5098269;27;45576;-67
2021/06/26 06:35:32;;;;;;;;;5.25;4.75;;;;;22.69;50.34;101243.94;5096505;27;47339;-53
2021/06/26 06:37:58;;;;;;;;;3.00;3.00;;;;;22.68;50.38;101255.44;5097692;27;45364;-65
2021/06/26 06:40:24;;;;;;;;;1.00;1.00;;;;;22.69;50.51;101251.84;5097337;27;45369;-51
2021/06/26 06:42:49;;;;;;;;;3.00;3.00;;;;;22.69;50.08;101239.50;5098396;27;45610;-49
2021/06/26 06:45:15;;;;;;;;;4.00;3.00;;;;;22.68;50.35;101240.44;5097732;27;46240;-47
2021/06/26 06:47:41;;;;;;;;;4.00;4.00;;;;;22.70;50.23;101243.00;5097585;27;45350;-48
2021/06/26 06:50:08;;;;;;;;;3.75;3.75;;;;;22.70;50.27;101245.63;5097845;27;45280;-51
2021/06/26 06:52:34;;;;;;;;;2.00;2.00;;;;;22.69;50.17;101243.94;5098097;27;45196;-47
2021/06/26 06:55:00;;;;;;;;;4.25;2.00;;;;;22.69;50.13;101244.81;5097430;27;45540;-49
2021/06/26 06:57:25;;;;;;;;;3.00;3.00;;;;;22.68;50.39;101242.22;5097728;27;45384;-48
2021/06/26 06:59:52;;;;;;;;;5.00;3.00;;;;;22.68;50.41;101256.31;5097973;27;45338;-48
2021/06/26 07:02:18;;;;;;;;;2.50;2.50;;;;;22.70;50.28;101256.19;5097804;27;45340;-50
2021/06/26 07:04:43;;;;;;;;;3.00;3.00;;;;;22.69;50.40;101255.38;5097432;27;45898;-49
2021/06/26 07:07:08;;;;;;;;;2.25;2.25;;;;;22.69;50.35;101260.66;5097337;27;45279;-51
2021/06/26 07:09:34;;;;;;;;;3.00;3.00;;;;;22.70;50.37;101261.50;5097562;27;45373;-63
2021/06/26 07:11:59;;;;;;;;;3.50;3.50;;;;;22.70;50.30;101264.13;5096414;27;45610;-64
2021/06/26 07:14:26;;;;;;;;;4.00;2.00;;;;;22.69;50.24;101259.78;5097219;27;46224;-58
2021/06/26 07:16:52;;;;;;;;;4.50;3.50;;;;;22.70;50.25;101270.28;5097684;27;45246;-65
2021/06/26 07:19:17;;;;;;;;;2.00;2.00;;;;;22.70;50.28;101264.13;5097312;27;45225;-67
2021/06/26 07:21:43;;;;;;;;;4.00;3.00;;;;;22.70;50.21;101272.94;5097561;27;45469;-66
2021/06/26 07:24:08;;;;;;;;;3.00;3.00;;;;;22.68;50.05;101266.88;5097214;27;45236;-66
2021/06/26 07:26:34;;;;;;;;;2.00;2.00;;;;;22.70;50.34;101269.41;5097055;27;45255;-65
2021/06/26 07:28:59;;;;;;;;;3.00;3.00;;;;;22.68;50.38;101268.66;5097391;27;45306;-66
2021/06/26 07:31:25;;;;;;;;;2.00;2.00;;;;;22.71;50.10;101271.13;5097915;27;45411;-62
2021/06/26 07:33:50;;;;;;;;;4.00;3.00;;;;;22.69;50.04;101273.00;5096074;27;46890;-62
2021/06/26 07:36:16;;;;;;;;;3.00;3.00;;;;;22.69;50.10;101271.22;5097283;27;45368;-61
2021/06/26 07:38:41;;;;;;;;;2.00;2.00;;;;;22.72;50.07;101272.81;5095684;27;45434;-65
2021/06/26 07:41:06;;;;;;;;;3.00;3.00;;;;;22.69;50.23;101267.72;5097163;27;45480;-66
2021/06/26 07:43:34;;;;;;;;;3.00;3.00;;;;;22.70;50.33;101269.41;5096957;27;46023;-66
2021/06/26 07:46:01;;;;;;;;;2.25;2.25;;;;;22.70;50.25;101270.28;5096981;27;45430;-64
2021/06/26 07:48:26;;;;;;;;;2.75;2.75;;;;;22.70;50.40;101264.13;5096975;27;45303;-57
2021/06/26 07:50:52;;;;;;;;;2.00;2.00;;;;;22.70;50.23;101269.41;5131403;27;45310;-62
2021/06/26 07:53:18;;;;;;;;;2.50;2.50;;;;;22.69;50.33;101265.06;5100460;27;45326;-63
2021/06/26 07:55:44;;;;;;;;;3.50;3.50;;;;;22.70;50.26;101261.50;5100605;27;45770;-66
2021/06/26 07:58:09;;;;;;;;;5.00;3.00;;;;;22.68;50.41;101268.66;5100656;27;45226;-61
2021/06/26 08:00:35;;;;;;;;;2.75;2.75;;;;;22.71;50.28;101263.19;5100916;27;45565;-55
2021/06/26 08:03:00;;;;;;;;;2.50;2.50;;;;;22.70;50.49;101262.34;5099344;27;47017;-67
2021/06/26 08:05:26;;;;;;;;;3.25;3.25;;;;;22.69;50.21;101254.50;5100602;27;45394;-67
2021/06/26 08:07:52;;;;;;;;;3.00;3.00;;;;;22.70;50.17;101258.84;5100397;27;45280;-66
2021/06/26 08:10:17;;;;;;;;;2.00;2.00;;;;;22.70;50.28;101245.63;5133777;27;45616;-67
2021/06/26 08:12:42;;;;;;;;;3.00;3.00;;;;;22.71;50.12;101252.63;5100061;27;46118;-66
2021/06/26 08:15:08;;;;;;;;;3.25;2.00;;;;;22.72;50.66;101254.34;5100329;27;45491;-67
2021/06/26 08:17:34;;;;;;;;;2.50;2.50;;;;;22.72;50.38;101253.47;5100181;27;45394;-67
2021/06/26 08:19:59;;;;;;;;;3.00;3.00;;;;;22.72;50.27;101253.47;5100471;27;45384;-63
2021/06/26 08:22:24;;;;;;;;;3.00;3.00;;;;;22.72;50.20;101243.75;5099102;27;46013;-68
2021/06/26 08:24:50;;;;;;;;;3.50;3.50;;;;;22.71;50.08;101242.06;5100003;27;45327;-67
2021/06/26 08:27:15;;;;;;;;;2.25;2.25;;;;;22.73;50.07;101241.94;5100118;27;45337;-68
2021/06/26 08:29:40;;;;;;;;;4.25;4.25;;;;;22.71;50.08;101242.06;5100137;27;45538;-66
2021/06/26 08:32:06;;;;;;;;;3.75;2.00;;;;;22.72;50.09;101233.19;5099831;27;46500;-61
2021/06/26 08:34:31;;;;;;;;;2.00;2.00;;;;;22.73;50.46;101241.94;5099857;27;45321;-65
2021/06/26 08:36:57;;;;;;;;;3.00;3.00;;;;;22.72;50.16;101246.41;5100364;27;45432;-67
2021/06/26 08:39:22;;;;;;;;;3.00;3.00;;;;;22.75;50.19;101253.28;5099710;27;45529;-67
2021/06/26 08:41:49;;;;;;;;;3.00;3.00;;;;;22.76;50.09;101250.59;5099642;27;45701;-66
2021/06/26 08:44:17;;;;;;;;;3.00;3.00;;;;;22.76;50.19;101252.34;5099659;27;45262;-66
2021/06/26 08:46:46;;;;;;;;;3.00;3.00;;;;;22.76;50.16;101258.50;5099717;27;45327;-67
2021/06/26 08:49:12;;;;;;;;;3.00;3.00;;;;;22.76;50.38;101261.16;5133116;27;45267;-66
2021/06/26 08:51:38;;;;;;;;;3.25;3.25;;;;;22.76;50.36;101260.28;5099534;27;46423;-65
2021/06/26 08:54:04;;;;;;;;;4.25;4.00;;;;;22.76;50.37;101269.06;5099496;27;45646;-67
2021/06/26 08:56:30;;;;;;;;;4.00;4.00;;;;;22.77;50.06;101272.56;5099925;27;45250;-59
2021/06/26 08:58:55;;;;;;;;;3.50;3.50;;;;;22.77;50.11;101259.34;5100102;27;45464;-66
2021/06/26 09:01:20;;;;;;;;;2.50;2.00;;;;;22.74;50.12;101249.81;5099133;27;45306;-67
2021/06/26 09:03:46;;;;;;;;;4.00;4.00;;;;;22.77;50.26;101252.25;5099160;27;45389;-65
2021/06/26 09:06:11;;;;;;;;;3.00;3.00;;;;;22.78;50.15;101248.69;5099536;27;45249;-65
2021/06/26 09:08:47;;;;;;;;;2.75;2.75;;;;;22.79;50.24;101246.91;5099492;27;45293;-65
2021/06/26 09:11:18;;;;;;;;;3.00;3.00;;;;;22.80;50.01;101246.78;5099299;27;45895;-62
2021/06/26 09:13:43;;;;;;;;;3.75;3.75;;;;;22.81;50.04;101252.94;5099194;27;45251;-63
2021/06/26 09:16:11;;;;;;;;;3.50;3.50;;;;;22.82;50.17;101249.38;5099304;27;45395;-67
2021/06/26 09:18:45;;;;;;;;;3.00;3.00;;;;;22.82;50.12;101247.56;5132746;27;45303;-67
2021/06/26 09:21:34;;;;;;;;;3.75;3.00;;;;;22.84;50.17;101247.47;5099088;27;46809;-59
2021/06/26 09:24:00;;;;;;;;;4.00;3.00;;;;;22.84;50.18;101250.09;5099170;27;45443;-64
2021/06/26 09:26:27;;;;;;;;;2.00;2.00;;;;;22.83;50.07;101249.28;5099549;27;45724;-57
2021/06/26 09:28:53;;;;;;;;;3.25;2.50;;;;;22.85;50.21;101247.38;5099304;27;45326;-58
2021/06/26 09:31:23;;;;;;;;;5.25;4.25;;;;;22.85;49.99;101231.53;5097552;27;47131;-63
2021/06/26 09:34:00;;;;;;;;;3.00;3.00;;;;;22.87;49.98;101236.72;5132044;27;45789;-48
2021/06/26 09:36:32;;;;;;;;;4.00;3.00;;;;;22.88;49.96;101235.78;5098839;27;45245;-47
2021/06/26 09:39:00;;;;;;;;;3.00;3.00;;;;;22.90;50.09;101240.97;5099129;27;45523;-48
2021/06/26 09:41:26;;;;;;;;;4.00;4.00;;;;;22.91;50.03;101238.25;5097406;27;47009;-47
2021/06/26 09:43:52;;;;;;;;;3.00;3.00;;;;;22.92;50.06;101239.09;5098707;27;45915;-47
2021/06/26 09:46:19;;;;;;;;;2.00;2.00;;;;;22.93;49.94;101246.91;5098838;27;45341;-53
2021/06/26 09:48:47;;;;;;;;;3.00;2.75;;;;;22.94;50.08;101238.03;5097618;27;45495;-49
2021/06/26 09:51:30;;;;;;;;;3.25;3.25;;;;;22.92;49.77;101244.38;5098698;27;46146;-48
2021/06/26 09:53:59;;;;;;;;;3.25;3.25;;;;;22.96;49.88;101256.47;5098152;27;45431;-65
2021/06/26 09:56:42;;;;;;;;;2.00;2.00;;;;;22.94;49.92;101253.06;5098640;27;45459;-60
2021/06/26 09:59:09;;;;;;;;;4.00;3.75;;;;;22.94;49.87;101258.34;5098920;27;45343;-61
2021/06/26 10:01:36;;;;;;;;;3.00;3.00;;;;;22.96;50.14;101261.75;5098432;27;45679;-67
2021/06/26 10:04:03;;;;;;;;;4.00;4.00;;;;;22.95;49.94;101254.78;5098757;27;45380;-67
2021/06/26 10:06:31;;;;;;;;;5.00;3.75;;;;;22.93;49.85;101256.66;5098867;27;45443;-68
2021/06/26 10:08:57;;;;;;;;;3.00;3.00;;;;;22.94;49.69;101259.19;5131793;27;45360;-68
2021/06/26 10:11:23;;;;;;;;;4.00;3.00;;;;;22.95;49.82;101265.34;5098300;27;46364;-68
2021/06/26 10:13:49;;;;;;;;;3.25;3.25;;;;;22.95;49.61;101260.06;5097279;27;45803;-67
2021/06/26 10:16:15;;;;;;;;;5.75;3.00;;;;;22.92;49.74;101258.47;5098477;27;45414;-68
2021/06/26 10:18:41;;;;;;;;;3.00;3.00;;;;;22.95;49.87;101260.91;5097313;27;45267;-64
2021/06/26 10:21:07;;;;;;;;;3.50;2.00;;;;;22.94;49.89;101253.91;5096760;27;47343;-65
2021/06/26 10:23:34;;;;;;;;;3.25;3.25;;;;;22.92;49.69;101250.53;5098499;27;45249;-67
2021/06/26 10:26:00;;;;;;;;;3.50;3.50;;;;;22.95;49.60;101252.97;5098651;27;45329;-59
2021/06/26 10:28:26;;;;;;;;;4.50;3.50;;;;;22.95;49.76;101249.50;5098328;27;45364;-64
2021/06/26 10:31:06;;;;;;;;;1.50;1.50;;;;;22.97;49.52;101252.91;5098010;27;46268;-64
2021/06/26 10:33:32;;;;;;;;;4.25;3.25;;;;;22.96;49.65;101254.66;5098341;27;45618;-65
2021/06/26 10:35:59;;;;;;;;;3.00;3.00;;;;;22.97;49.77;101252.91;5098069;27;45319;-62
2021/06/26 10:38:26;;;;;;;;;3.00;3.00;;;;;22.96;49.68;101256.47;5098236;27;45441;-68
2021/06/26 10:40:54;;;;;;;;;4.00;3.75;;;;;22.96;49.67;101252.03;5131235;27;45469;-68
2021/06/26 10:43:26;;;;;;;;;4.75;4.75;;;;;22.97;49.54;101247.59;5096486;27;45798;-63
2021/06/26 10:46:06;;;;;;;;;3.75;3.25;;;;;22.97;49.30;101253.72;5096647;27;45349;-65
2021/06/26 10:48:31;;;;;;;;;5.00;4.25;;;;;22.97;49.37;101247.59;5098264;27;45401;-63
2021/06/26 10:50:56;;;;;;;;;3.50;3.50;;;;;22.97;49.35;101244.97;5097289;27;45380;-65
2021/06/26 10:53:39;;;;;;;;;6.50;5.00;;;;;22.98;49.39;101246.66;5097661;27;45235;-63
2021/06/26 10:56:16;;;;;;;;;3.75;3.75;;;;;22.97;49.46;101245.81;5098344;27;45396;-67
2021/06/26 10:58:46;;;;;;;;;4.50;4.50;;;;;22.98;49.48;101244.03;5097985;27;45583;-65
2021/06/26 11:01:14;;;;;;;;;5.00;4.00;;;;;22.97;49.59;101248.44;5096252;27;47991;-68
2021/06/26 11:03:40;;;;;;;;;3.00;2.75;;;;;22.96;49.47;101241.44;5097579;27;45337;-59
2021/06/26 11:06:26;;;;;;;;;3.50;3.50;;;;;22.97;49.46;101247.59;5098037;27;45291;-64
2021/06/26 11:09:08;;;;;;;;;2.50;2.00;;;;;22.96;49.55;101245.91;5097806;27;45429;-67
2021/06/26 11:11:38;;;;;;;;;3.00;3.00;;;;;22.96;49.52;101241.44;5097811;27;45478;-65
2021/06/26 11:14:13;;;;;;;;;4.25;4.25;;;;;22.96;49.55;101236.16;5097774;27;45250;-67
2021/06/26 11:16:41;;;;;;;;;4.25;4.25;;;;;22.96;49.31;101228.25;5097566;27;45219;-63
2021/06/26 11:19:07;;;;;;;;;4.75;4.75;;;;;22.97;49.45;101221.19;5097945;27;45867;-51
2021/06/26 11:21:41;;;;;;;;;5.00;4.00;;;;;22.97;49.20;101222.00;5097730;27;46489;-68